createdAt,value
2023-06-10T00:00:00.123Z,14.90
2023-06-10T00:02:30.540Z,14.90
2023-06-10T00:04:58.708Z,14.80
2023-06-10T00:07:25.973Z,14.50
2023-06-10T00:09:53.376Z,14.70
2023-06-10T00:12:21.561Z,14.50
2023-06-10T00:14:51.412Z,14.60
2023-06-10T00:17:19.098Z,14.50
2023-06-10T00:19:48.456Z,14.50
2023-06-10T00:22:15.751Z,14.50
2023-06-10T00:24:43.128Z,14.50
2023-06-10T00:27:11.013Z,14.50
2023-06-10T00:29:38.246Z,14.50
2023-06-10T00:32:06.206Z,14.30
2023-06-10T00:34:33.919Z,14.40
2023-06-10T00:37:01.187Z,14.50
2023-06-10T00:39:28.456Z,14.40
2023-06-10T00:41:55.581Z,14.40
2023-06-10T00:44:22.858Z,14.30
2023-06-10T00:46:52.625Z,14.40
2023-06-10T00:49:20.723Z,14.40
2023-06-10T00:51:48.353Z,14.10
2023-06-10T00:54:15.844Z,14.50
2023-06-10T00:56:44.430Z,14.40
2023-06-10T00:59:11.779Z,14.60
2023-06-10T01:01:40.691Z,14.60
2023-06-10T01:04:10.838Z,14.10
2023-06-10T01:06:59.506Z,14.40
2023-06-10T01:09:43.159Z,14.30
2023-06-10T01:12:23.429Z,14.20
2023-06-10T01:14:52.151Z,14.30
2023-06-10T01:17:20.384Z,14.20
2023-06-10T01:20:00.724Z,14.30
2023-06-10T01:22:34.694Z,14.30
2023-06-10T01:25:07.632Z,14.30
2023-06-10T01:27:41.662Z,14.10
2023-06-10T01:30:21.873Z,14.00
2023-06-10T01:32:54.354Z,14.20
2023-06-10T01:35:26.687Z,14.10
2023-06-10T01:37:58.029Z,14.10
2023-06-10T01:40:27.076Z,14.30
2023-06-10T01:42:54.455Z,14.20
2023-06-10T01:45:21.860Z,14.40
2023-06-10T01:47:49.167Z,14.10
2023-06-10T01:50:17.716Z,14.40
2023-06-10T01:52:45.022Z,14.40
2023-06-10T01:55:12.309Z,14.40
2023-06-10T01:57:39.546Z,14.40
2023-06-10T02:00:07.762Z,14.60
2023-06-10T02:02:35.124Z,14.40
2023-06-10T02:05:02.409Z,14.50
2023-06-10T02:07:29.585Z,14.50
2023-06-10T02:09:56.866Z,14.50
2023-06-10T02:12:24.006Z,14.60
2023-06-10T02:14:51.843Z,14.60
2023-06-10T02:17:19.179Z,14.50
2023-06-10T02:19:53.698Z,14.60
2023-06-10T02:22:27.054Z,14.60
2023-06-10T02:24:54.379Z,14.60
2023-06-10T02:27:22.416Z,14.50
2023-06-10T02:29:49.615Z,14.40
2023-06-10T02:32:17.067Z,14.60
2023-06-10T02:34:44.513Z,14.40
2023-06-10T02:37:11.783Z,14.70
2023-06-10T02:39:39.016Z,14.50
2023-06-10T02:42:07.856Z,14.50
2023-06-10T02:44:35.126Z,14.10
2023-06-10T02:47:02.283Z,14.50
2023-06-10T02:49:29.589Z,14.30
2023-06-10T02:51:58.178Z,14.20
2023-06-10T02:54:25.912Z,14.20
2023-06-10T02:57:03.846Z,14.30
2023-06-10T02:59:31.105Z,14.30
2023-06-10T03:01:58.333Z,14.20
2023-06-10T03:04:27.086Z,14.30
2023-06-10T03:06:56.604Z,14.30
2023-06-10T03:09:23.741Z,14.30
2023-06-10T03:11:51.232Z,14.20
2023-06-10T03:14:18.416Z,14.40
2023-06-10T03:16:46.863Z,14.50
2023-06-10T03:19:15.851Z,14.20
2023-06-10T03:21:46.268Z,14.40
2023-06-10T03:24:13.649Z,14.60
2023-06-10T03:26:41.402Z,14.80
2023-06-10T03:29:09.080Z,14.60
2023-06-10T03:31:39.984Z,14.60
2023-06-10T03:34:07.285Z,14.70
2023-06-10T03:36:34.457Z,14.60
2023-06-10T03:39:17.152Z,14.70
2023-06-10T03:41:44.386Z,14.60
2023-06-10T03:44:11.533Z,14.70
2023-06-10T03:46:38.819Z,14.60
2023-06-10T03:49:06.989Z,14.80
2023-06-10T03:51:36.815Z,14.90
2023-06-10T03:54:04.314Z,14.80
2023-06-10T03:56:33.999Z,14.80
2023-06-10T03:59:01.481Z,14.80
2023-06-10T04:01:29.301Z,14.90
2023-06-10T04:03:56.500Z,15.00
2023-06-10T04:06:23.953Z,14.80
2023-06-10T04:08:51.100Z,14.80
2023-06-10T04:11:18.505Z,14.80
2023-06-10T04:13:45.706Z,14.90
2023-06-10T04:16:12.894Z,14.90
2023-06-10T04:18:39.932Z,15.10
2023-06-10T04:21:06.998Z,15.20
2023-06-10T04:23:34.388Z,15.30
2023-06-10T04:26:01.681Z,15.00
2023-06-10T04:28:28.812Z,15.10
2023-06-10T04:30:56.290Z,15.00
2023-06-10T04:33:23.375Z,15.10
2023-06-10T04:35:51.578Z,15.20
2023-06-10T04:38:18.842Z,15.10
2023-06-10T04:40:46.042Z,15.20
2023-06-10T04:43:14.143Z,15.20
2023-06-10T04:45:41.387Z,15.20
2023-06-10T04:48:08.983Z,15.20
2023-06-10T04:50:36.255Z,15.40
2023-06-10T04:53:03.855Z,15.30
2023-06-10T04:55:31.051Z,15.40
2023-06-10T04:57:58.762Z,15.70
2023-06-10T05:00:26.015Z,15.50
2023-06-10T05:02:53.347Z,15.40
2023-06-10T05:05:20.932Z,15.50
2023-06-10T05:07:48.234Z,15.70
2023-06-10T05:10:23.341Z,15.80
2023-06-10T05:12:50.552Z,15.70
2023-06-10T05:15:20.120Z,15.90
2023-06-10T05:17:47.329Z,16.00
2023-06-10T05:20:15.234Z,16.20
2023-06-10T05:22:42.697Z,16.10
2023-06-10T05:25:10.316Z,16.50
2023-06-10T05:27:37.783Z,16.60
2023-06-10T05:30:05.731Z,16.80
2023-06-10T05:32:35.260Z,17.10
2023-06-10T05:35:02.708Z,18.10
2023-06-10T05:37:29.981Z,18.80
2023-06-10T05:39:59.549Z,18.80
2023-06-10T05:42:26.731Z,19.20
2023-06-10T05:44:53.865Z,19.50
2023-06-10T05:47:21.293Z,20.70
2023-06-10T05:49:58.054Z,21.30
2023-06-10T05:52:26.418Z,21.90
2023-06-10T05:54:53.718Z,24.90
2023-06-10T05:58:43.720Z,25.10
2023-06-10T06:01:13.838Z,26.50
2023-06-10T06:03:41.300Z,27.00
2023-06-10T06:06:08.651Z,26.90
2023-06-10T06:08:36.014Z,27.00
2023-06-10T06:11:03.441Z,26.70
2023-06-10T06:13:30.745Z,26.50
2023-06-10T06:15:58.194Z,26.70
2023-06-10T06:18:25.762Z,27.90
2023-06-10T06:20:54.152Z,29.10
2023-06-10T06:23:21.336Z,29.20
2023-06-10T06:25:48.654Z,29.20
2023-06-10T06:28:16.297Z,28.40
2023-06-10T06:30:45.383Z,28.10
2023-06-10T06:33:16.424Z,26.80
2023-06-10T06:35:43.792Z,26.60
2023-06-10T06:38:11.181Z,25.60
2023-06-10T06:40:38.491Z,25.20
2023-06-10T06:43:05.990Z,25.30
2023-06-10T06:45:35.780Z,25.30
2023-06-10T06:48:07.747Z,24.60
2023-06-10T06:50:34.989Z,24.80
2023-06-10T06:53:02.089Z,23.90
2023-06-10T06:55:29.346Z,24.20
2023-06-10T06:57:57.020Z,24.50
2023-06-10T07:00:24.454Z,26.50
2023-06-10T07:02:51.827Z,26.60
2023-06-10T07:05:19.104Z,26.40
2023-06-10T07:07:46.295Z,25.70
2023-06-10T07:10:15.989Z,25.60
2023-06-10T07:12:43.115Z,25.30
2023-06-10T07:15:10.856Z,24.60
2023-06-10T07:17:41.610Z,24.90
2023-06-10T07:20:09.687Z,23.70
2023-06-10T07:22:36.908Z,23.50
2023-06-10T07:25:04.506Z,23.80
2023-06-10T07:27:31.756Z,23.40
2023-06-10T07:29:59.104Z,23.70
2023-06-10T07:32:26.469Z,23.80
2023-06-10T07:34:54.010Z,24.20
2023-06-10T07:37:21.267Z,24.80
2023-06-10T07:39:50.209Z,25.50
2023-06-10T07:42:17.358Z,25.30
2023-06-10T07:44:44.548Z,25.20
2023-06-10T07:47:11.818Z,25.00
2023-06-10T07:49:38.978Z,25.00
2023-06-10T07:52:07.041Z,25.00
2023-06-10T07:54:34.117Z,24.60
2023-06-10T07:57:01.261Z,25.00
2023-06-10T07:59:28.532Z,25.00
2023-06-10T08:01:55.591Z,25.00
2023-06-10T08:04:22.917Z,25.30
2023-06-10T08:06:50.238Z,26.20
2023-06-10T08:09:19.554Z,26.40
2023-06-10T08:11:48.975Z,27.40
2023-06-10T08:14:17.346Z,27.30
2023-06-10T08:16:45.668Z,27.90
2023-06-10T08:19:14.410Z,28.00
2023-06-10T08:21:41.842Z,27.70
2023-06-10T08:24:10.323Z,27.00
2023-06-10T08:26:37.886Z,26.90
2023-06-10T08:29:05.140Z,26.50
2023-06-10T08:31:32.457Z,26.30
2023-06-10T08:33:59.639Z,26.00
2023-06-10T08:36:26.937Z,26.50
2023-06-10T08:38:56.660Z,26.60
2023-06-10T08:41:30.586Z,26.50
2023-06-10T08:44:21.882Z,26.60
2023-06-10T08:46:51.122Z,26.00
2023-06-10T08:49:24.228Z,26.00
2023-06-10T08:52:01.851Z,26.20
2023-06-10T08:54:39.167Z,26.30
2023-06-10T08:57:07.902Z,26.30
2023-06-10T08:59:35.655Z,25.80
2023-06-10T09:02:06.850Z,26.00
2023-06-10T09:04:37.699Z,25.50
2023-06-10T09:07:06.520Z,25.50
2023-06-10T09:09:36.260Z,25.50
2023-06-10T09:12:04.453Z,25.40
2023-06-10T09:14:31.751Z,25.30
2023-06-10T09:16:59.497Z,25.40
2023-06-10T09:19:31.923Z,26.10
2023-06-10T09:22:19.892Z,25.90
2023-06-10T09:24:52.355Z,25.90
2023-06-10T09:27:21.139Z,26.30
2023-06-10T09:29:53.822Z,26.00
2023-06-10T09:32:22.567Z,26.40
2023-06-10T09:34:52.051Z,26.30
2023-06-10T09:37:25.601Z,26.50
2023-06-10T09:40:08.477Z,26.70
2023-06-10T09:42:40.436Z,26.90
2023-06-10T09:45:08.818Z,26.60
2023-06-10T09:47:45.840Z,26.60
2023-06-10T09:50:16.199Z,26.80
2023-06-10T09:52:54.005Z,26.40
2023-06-10T09:55:21.619Z,26.50
2023-06-10T09:57:55.827Z,26.10
2023-06-10T10:00:24.748Z,26.70
2023-06-10T10:02:57.041Z,27.10
2023-06-10T10:05:25.062Z,27.20
2023-06-10T10:07:54.520Z,26.80
2023-06-10T10:10:23.099Z,26.70
2023-06-10T10:12:59.523Z,25.80
2023-06-10T10:15:35.116Z,25.80
2023-06-10T10:18:12.080Z,26.60
2023-06-10T10:20:53.554Z,27.40
2023-06-10T10:24:06.828Z,28.00
2023-06-10T10:26:36.253Z,28.50
2023-06-10T10:29:21.654Z,28.50
2023-06-10T10:31:55.071Z,28.60
2023-06-10T10:35:03.496Z,27.70
2023-06-10T10:37:48.183Z,27.40
2023-06-10T10:40:52.782Z,26.80
2023-06-10T10:43:22.600Z,26.50
2023-06-10T10:46:49.879Z,26.50
2023-06-10T10:49:19.313Z,26.50
2023-06-10T10:51:59.626Z,26.20
2023-06-10T10:54:49.126Z,26.20
2023-06-10T10:57:25.365Z,25.70
2023-06-10T10:59:57.122Z,25.40
2023-06-10T11:02:51.183Z,24.70
2023-06-10T11:05:19.669Z,25.20
2023-06-10T11:07:58.470Z,24.80
2023-06-10T11:10:35.675Z,24.20
2023-06-10T11:13:27.807Z,24.30
2023-06-10T11:16:00.060Z,23.80
2023-06-10T11:18:34.214Z,23.30
2023-06-10T11:21:04.438Z,23.20
2023-06-10T11:23:51.402Z,22.60
2023-06-10T11:26:47.711Z,22.90
2023-06-10T11:29:20.458Z,22.80
2023-06-10T11:32:09.228Z,23.20
2023-06-10T11:34:45.199Z,23.30
2023-06-10T11:37:13.251Z,23.40
2023-06-10T11:39:40.821Z,23.50
2023-06-10T11:42:13.041Z,23.50
2023-06-10T11:44:58.242Z,23.50
2023-06-10T11:47:30.907Z,23.40
2023-06-10T11:50:06.212Z,23.30
2023-06-10T11:52:42.548Z,23.40
2023-06-10T11:55:15.942Z,23.40
2023-06-10T11:57:44.090Z,23.40
2023-06-10T12:00:15.890Z,23.50
2023-06-10T12:02:47.341Z,23.80
2023-06-10T12:05:43.554Z,24.20
2023-06-10T12:08:14.479Z,24.50
2023-06-10T12:10:43.512Z,24.50
2023-06-10T12:13:11.609Z,24.70
2023-06-10T12:15:39.034Z,24.70
2023-06-10T12:18:10.558Z,25.00
2023-06-10T12:20:39.076Z,25.20
2023-06-10T12:23:13.501Z,25.20
2023-06-10T12:25:50.257Z,25.20
2023-06-10T12:28:18.839Z,25.30
2023-06-10T12:30:46.155Z,25.40
2023-06-10T12:33:23.209Z,25.50
2023-06-10T12:35:52.738Z,25.30
2023-06-10T12:38:30.308Z,25.30
2023-06-10T12:41:08.039Z,25.00
2023-06-10T12:43:40.869Z,25.10
2023-06-10T12:46:41.058Z,25.00
2023-06-10T12:49:08.328Z,24.30
2023-06-10T12:51:38.755Z,24.30
2023-06-10T12:54:16.322Z,24.40
2023-06-10T12:57:11.354Z,24.00
2023-06-10T12:59:43.746Z,23.60
2023-06-10T13:02:50.138Z,23.20
2023-06-10T13:05:41.258Z,23.10
2023-06-10T13:08:13.800Z,23.20
2023-06-10T13:10:43.992Z,23.20
2023-06-10T13:13:15.545Z,23.00
2023-06-10T13:15:44.372Z,23.10
2023-06-10T13:18:12.257Z,23.30
2023-06-10T13:20:40.450Z,23.20
2023-06-10T13:23:08.516Z,23.10
2023-06-10T13:25:35.997Z,23.00
2023-06-10T13:30:58.775Z,23.20
2023-06-10T13:33:28.146Z,23.20
2023-06-10T13:35:55.344Z,23.20
2023-06-10T13:38:22.552Z,23.50
2023-06-10T13:40:49.886Z,23.40
2023-06-10T13:43:17.329Z,23.30
2023-06-10T13:45:44.469Z,23.30
2023-06-10T13:48:11.855Z,23.60
2023-06-10T13:50:39.575Z,23.20
2023-06-10T13:53:07.080Z,23.40
2023-06-10T13:55:34.234Z,23.00
2023-06-10T13:58:01.413Z,23.60
2023-06-10T14:00:30.372Z,23.20
2023-06-10T14:02:57.724Z,23.20
2023-06-10T14:05:25.331Z,22.90
2023-06-10T14:07:52.821Z,22.80
2023-06-10T14:10:20.215Z,22.80
2023-06-10T14:12:47.869Z,22.70
2023-06-10T14:15:15.099Z,22.70
2023-06-10T14:17:43.699Z,22.90
2023-06-10T14:20:13.842Z,23.00
2023-06-10T14:22:41.412Z,22.80
2023-06-10T14:25:09.647Z,22.50
2023-06-10T14:27:37.216Z,22.80
2023-06-10T14:30:05.952Z,22.80
2023-06-10T14:32:35.572Z,23.00
2023-06-10T14:35:04.252Z,22.90
2023-06-10T14:37:31.629Z,22.90
2023-06-10T14:39:58.797Z,22.90
2023-06-10T14:42:26.089Z,23.00
2023-06-10T14:44:53.670Z,23.00
2023-06-10T14:47:21.140Z,23.30
2023-06-10T14:49:48.348Z,23.10
2023-06-10T14:52:15.644Z,23.10
2023-06-10T14:54:42.943Z,23.40
2023-06-10T14:57:11.964Z,23.50
2023-06-10T14:59:39.328Z,23.20
2023-06-10T15:02:07.289Z,23.00
2023-06-10T15:04:37.572Z,23.20
2023-06-10T15:08:51.253Z,23.20
2023-06-10T15:11:18.602Z,23.00
2023-06-10T15:13:48.102Z,23.40
2023-06-10T15:16:16.366Z,23.00
2023-06-10T15:18:43.959Z,23.00
2023-06-10T16:22:55.136Z,22.20
2023-06-10T16:37:40.949Z,21.60
2023-06-10T16:40:08.924Z,21.70
2023-06-10T16:42:36.088Z,21.60
2023-06-10T17:51:41.429Z,21.20
2023-06-10T18:06:33.359Z,21.00
2023-06-10T18:09:01.345Z,20.90
2023-06-10T18:11:28.937Z,21.20
2023-06-10T18:13:56.200Z,21.30
2023-06-10T18:18:51.250Z,21.20
2023-06-10T18:25:32.161Z,20.80
2023-06-10T18:47:56.163Z,20.30
2023-06-10T18:50:25.067Z,19.40
2023-06-10T18:55:21.007Z,20.30
2023-06-10T19:02:45.286Z,20.30
2023-06-10T19:07:47.810Z,19.80
2023-06-10T19:10:27.138Z,20.40
2023-06-10T19:48:36.904Z,20.20
2023-06-10T19:51:04.891Z,21.00
2023-06-10T20:04:24.954Z,20.10
2023-06-10T20:07:03.237Z,19.60
2023-06-10T20:30:08.265Z,19.80
2023-06-10T20:43:18.935Z,20.10
2023-06-10T20:53:27.459Z,19.70
2023-06-10T20:58:41.744Z,19.70
2023-06-10T21:13:28.046Z,19.60
2023-06-10T21:30:51.209Z,19.00
2023-06-10T21:45:43.759Z,19.60
2023-06-10T21:50:39.355Z,19.70
2023-06-10T21:53:06.432Z,19.60
2023-06-10T21:55:33.583Z,19.00
2023-06-10T22:05:24.309Z,19.60
2023-06-10T22:07:52.593Z,19.30
2023-06-10T22:12:47.318Z,19.40
2023-06-10T22:17:41.954Z,17.70
2023-06-10T22:25:07.699Z,19.20
2023-06-10T22:27:35.093Z,19.50
2023-06-10T22:30:02.444Z,18.50
2023-06-10T22:37:24.683Z,19.10
2023-06-10T22:39:51.722Z,19.40
2023-06-10T22:42:18.815Z,19.60
2023-06-10T22:54:38.846Z,19.00
2023-06-10T23:04:29.171Z,18.60
2023-06-10T23:06:56.349Z,18.20
2023-06-10T23:14:22.546Z,18.20
2023-06-10T23:16:52.254Z,18.20
2023-06-10T23:19:20.230Z,19.30
2023-06-10T23:21:55.409Z,17.80
2023-06-10T23:24:28.491Z,18.40
2023-06-10T23:26:58.284Z,18.70
2023-06-10T23:36:53.361Z,18.50
2023-06-10T23:39:21.047Z,17.90
2023-06-10T23:44:16.221Z,18.40
2023-06-10T23:46:43.319Z,17.90
2023-06-10T23:49:10.639Z,18.20
2023-06-10T23:56:50.305Z,17.30
2023-06-10T23:59:17.425Z,18.00
